Terminal Aerodrome Forecast
Issued by NWS Austin/San Antonio, TX

Home | Current Version | Previous Version | Text Only | Print | Product List | Glossary On
Versions: 1 2 3 4 5 6 7 8 9 10 11 12 13
000
FTUS44 KEWX 020500
TAFAUS
TAF
KAUS 020523Z 0206/0312 17007KT P6SM BKN012
     FM021400 19010KT P6SM BKN025
     FM021600 19014KT P6SM SCT050
     FM030100 21006KT P6SM -SHRA SCT025 BKN040
      TEMPO 0302/0303 VRB25G35KT 3SM TSRA BKN025CB
     FM030300 01008KT P6SM -SHRA SCT025 BKN040
      TEMPO 0303/0306 3SM TSRA BKN025CB
     FM030700 01008KT P6SM SCT050 SCT080=

USA.gov is the U.S. government's official web portal to all federal, state and local government web resources and services.